sensor_id;sensor_type;location;lat;lon;timestamp;temperature;humidity
39779;DHT22;25454;49.878;8.618;2022-08-30T00:03:20;18.50;70.30
39779;DHT22;25454;49.878;8.618;2022-08-30T00:08:21;18.40;70.60
39779;DHT22;25454;49.878;8.618;2022-08-30T00:13:23;18.30;70.90
39779;DHT22;25454;49.878;8.618;2022-08-30T00:18:27;18.30;71.30
39779;DHT22;25454;49.878;8.618;2022-08-30T00:23:28;18.30;71.70
39779;DHT22;25454;49.878;8.618;2022-08-30T00:28:29;18.20;71.90
39779;DHT22;25454;49.878;8.618;2022-08-30T00:33:29;18.20;72.10
39779;DHT22;25454;49.878;8.618;2022-08-30T00:38:30;18.10;72.10
39779;DHT22;25454;49.878;8.618;2022-08-30T00:43:32;18.10;72.10
39779;DHT22;25454;49.878;8.618;2022-08-30T00:48:38;18.10;72.30
39779;DHT22;25454;49.878;8.618;2022-08-30T00:53:43;18.10;72.40
39779;DHT22;25454;49.878;8.618;2022-08-30T00:58:48;18.10;72.60
39779;DHT22;25454;49.878;8.618;2022-08-30T01:03:49;18.10;73.10
39779;DHT22;25454;49.878;8.618;2022-08-30T01:08:51;17.90;73.10
39779;DHT22;25454;49.878;8.618;2022-08-30T01:13:52;17.80;73.70
39779;DHT22;25454;49.878;8.618;2022-08-30T01:18:56;17.80;74.30
39779;DHT22;25454;49.878;8.618;2022-08-30T01:23:58;17.70;74.50
39779;DHT22;25454;49.878;8.618;2022-08-30T01:29:09;17.70;74.70
39779;DHT22;25454;49.878;8.618;2022-08-30T01:34:13;17.70;74.90
39779;DHT22;25454;49.878;8.618;2022-08-30T01:39:16;17.70;75.20
39779;DHT22;25454;49.878;8.618;2022-08-30T01:44:16;17.60;75.70
39779;DHT22;25454;49.878;8.618;2022-08-30T01:49:18;17.50;76.20
39779;DHT22;25454;49.878;8.618;2022-08-30T01:54:19;17.40;76.40
39779;DHT22;25454;49.878;8.618;2022-08-30T01:59:20;17.40;76.90
39779;DHT22;25454;49.878;8.618;2022-08-30T02:04:20;17.40;77.20
39779;DHT22;25454;49.878;8.618;2022-08-30T02:09:21;17.40;78.20
39779;DHT22;25454;49.878;8.618;2022-08-30T02:14:22;17.30;77.60
39779;DHT22;25454;49.878;8.618;2022-08-30T02:19:22;17.30;77.90
39779;DHT22;25454;49.878;8.618;2022-08-30T02:24:23;17.10;78.60
39779;DHT22;25454;49.878;8.618;2022-08-30T02:29:26;17.10;78.90
39779;DHT22;25454;49.878;8.618;2022-08-30T02:34:26;17.10;79.10
39779;DHT22;25454;49.878;8.618;2022-08-30T02:39:33;17.10;79.20
39779;DHT22;25454;49.878;8.618;2022-08-30T02:44:36;17.10;79.80
39779;DHT22;25454;49.878;8.618;2022-08-30T02:49:37;17.00;80.50
39779;DHT22;25454;49.878;8.618;2022-08-30T02:54:37;16.90;81.20
39779;DHT22;25454;49.878;8.618;2022-08-30T02:59:38;16.90;81.90
39779;DHT22;25454;49.878;8.618;2022-08-30T03:04:43;16.80;82.50
39779;DHT22;25454;49.878;8.618;2022-08-30T03:09:47;16.70;83.90
39779;DHT22;25454;49.878;8.618;2022-08-30T03:14:48;16.60;84.00
39779;DHT22;25454;49.878;8.618;2022-08-30T03:19:49;16.50;84.60
39779;DHT22;25454;49.878;8.618;2022-08-30T03:24:52;16.60;84.80
39779;DHT22;25454;49.878;8.618;2022-08-30T03:29:53;16.50;84.90
39779;DHT22;25454;49.878;8.618;2022-08-30T03:34:53;16.50;85.30
39779;DHT22;25454;49.878;8.618;2022-08-30T03:39:54;16.50;85.70
39779;DHT22;25454;49.878;8.618;2022-08-30T03:44:55;16.50;85.90
39779;DHT22;25454;49.878;8.618;2022-08-30T03:49:56;16.30;86.40
39779;DHT22;25454;49.878;8.618;2022-08-30T03:54:58;16.30;86.90
39779;DHT22;25454;49.878;8.618;2022-08-30T04:00:00;16.20;87.40
39779;DHT22;25454;49.878;8.618;2022-08-30T04:05:01;16.10;87.80
39779;DHT22;25454;49.878;8.618;2022-08-30T04:10:03;16.10;88.30
39779;DHT22;25454;49.878;8.618;2022-08-30T04:15:05;16.00;88.70
39779;DHT22;25454;49.878;8.618;2022-08-30T04:20:07;15.90;89.30
39779;DHT22;25454;49.878;8.618;2022-08-30T04:25:08;15.90;89.60
39779;DHT22;25454;49.878;8.618;2022-08-30T04:30:14;15.80;90.00
39779;DHT22;25454;49.878;8.618;2022-08-30T04:35:14;15.60;90.30
39779;DHT22;25454;49.878;8.618;2022-08-30T04:40:15;15.60;90.60
39779;DHT22;25454;49.878;8.618;2022-08-30T04:45:16;15.60;90.80
39779;DHT22;25454;49.878;8.618;2022-08-30T04:50:18;15.60;91.10
39779;DHT22;25454;49.878;8.618;2022-08-30T04:55:19;15.70;91.10
39779;DHT22;25454;49.878;8.618;2022-08-30T05:00:20;15.80;91.00
39779;DHT22;25454;49.878;8.618;2022-08-30T05:05:21;15.80;90.80
39779;DHT22;25454;49.878;8.618;2022-08-30T05:10:43;15.90;90.70
39779;DHT22;25454;49.878;8.618;2022-08-30T05:15:44;16.00;90.80
39779;DHT22;25454;49.878;8.618;2022-08-30T05:20:45;16.00;90.70
39779;DHT22;25454;49.878;8.618;2022-08-30T05:25:45;16.10;90.70
39779;DHT22;25454;49.878;8.618;2022-08-30T05:30:46;16.20;90.60
39779;DHT22;25454;49.878;8.618;2022-08-30T05:35:46;16.30;90.40
39779;DHT22;25454;49.878;8.618;2022-08-30T05:40:47;16.40;90.20
39779;DHT22;25454;49.878;8.618;2022-08-30T05:46:00;16.50;90.00
39779;DHT22;25454;49.878;8.618;2022-08-30T05:51:07;16.70;89.50
39779;DHT22;25454;49.878;8.618;2022-08-30T05:56:11;17.10;88.20
39779;DHT22;25454;49.878;8.618;2022-08-30T06:06:22;20.80;73.40
39779;DHT22;25454;49.878;8.618;2022-08-30T06:11:24;22.30;66.00
39779;DHT22;25454;49.878;8.618;2022-08-30T06:16:27;23.70;60.50
39779;DHT22;25454;49.878;8.618;2022-08-30T06:21:30;24.40;57.80
39779;DHT22;25454;49.878;8.618;2022-08-30T06:26:36;23.70;58.60
39779;DHT22;25454;49.878;8.618;2022-08-30T06:31:37;23.10;59.50
39779;DHT22;25454;49.878;8.618;2022-08-30T06:36:39;21.80;63.80
39779;DHT22;25454;49.878;8.618;2022-08-30T06:41:43;20.90;68.10
39779;DHT22;25454;49.878;8.618;2022-08-30T06:46:44;20.30;70.90
39779;DHT22;25454;49.878;8.618;2022-08-30T06:51:44;20.10;72.10
39779;DHT22;25454;49.878;8.618;2022-08-30T06:56:48;20.20;72.60
39779;DHT22;25454;49.878;8.618;2022-08-30T07:01:48;20.50;72.00
39779;DHT22;25454;49.878;8.618;2022-08-30T07:06:49;20.70;71.50
39779;DHT22;25454;49.878;8.618;2022-08-30T07:11:50;21.00;71.60
39779;DHT22;25454;49.878;8.618;2022-08-30T07:16:51;21.10;70.10
39779;DHT22;25454;49.878;8.618;2022-08-30T07:21:52;21.20;70.20
39779;DHT22;25454;49.878;8.618;2022-08-30T07:26:52;21.50;69.50
39779;DHT22;25454;49.878;8.618;2022-08-30T07:31:53;21.90;68.60
39779;DHT22;25454;49.878;8.618;2022-08-30T07:36:54;22.30;67.00
39779;DHT22;25454;49.878;8.618;2022-08-30T07:41:54;24.60;60.40
39779;DHT22;25454;49.878;8.618;2022-08-30T07:46:55;26.60;55.70
39779;DHT22;25454;49.878;8.618;2022-08-30T07:51:57;28.90;50.90
39779;DHT22;25454;49.878;8.618;2022-08-30T07:57:00;29.30;49.30
39779;DHT22;25454;49.878;8.618;2022-08-30T08:02:01;29.80;47.90
39779;DHT22;25454;49.878;8.618;2022-08-30T08:07:01;30.60;46.50
39779;DHT22;25454;49.878;8.618;2022-08-30T08:12:04;30.80;45.60
39779;DHT22;25454;49.878;8.618;2022-08-30T08:17:06;31.20;44.80
39779;DHT22;25454;49.878;8.618;2022-08-30T08:22:07;31.30;44.40
39779;DHT22;25454;49.878;8.618;2022-08-30T08:27:07;32.00;43.30
39779;DHT22;25454;49.878;8.618;2022-08-30T08:32:08;32.20;43.00
39779;DHT22;25454;49.878;8.618;2022-08-30T08:37:09;32.40;42.20
39779;DHT22;25454;49.878;8.618;2022-08-30T08:42:29;32.40;42.30
39779;DHT22;25454;49.878;8.618;2022-08-30T08:52:53;32.90;41.50
39779;DHT22;25454;49.878;8.618;2022-08-30T08:58:23;32.00;42.10
39779;DHT22;25454;49.878;8.618;2022-08-30T09:03:26;31.20;43.60
39779;DHT22;25454;49.878;8.618;2022-08-30T09:08:27;31.00;43.60
39779;DHT22;25454;49.878;8.618;2022-08-30T09:13:28;32.10;42.30
39779;DHT22;25454;49.878;8.618;2022-08-30T09:18:55;32.90;40.40
39779;DHT22;25454;49.878;8.618;2022-08-30T09:23:59;34.80;37.70
39779;DHT22;25454;49.878;8.618;2022-08-30T09:29:00;34.80;37.10
39779;DHT22;25454;49.878;8.618;2022-08-30T09:34:05;34.30;37.60
39779;DHT22;25454;49.878;8.618;2022-08-30T09:39:17;34.10;37.70
39779;DHT22;25454;49.878;8.618;2022-08-30T09:44:22;33.80;38.30
39779;DHT22;25454;49.878;8.618;2022-08-30T09:49:39;34.90;36.50
39779;DHT22;25454;49.878;8.618;2022-08-30T10:00:07;36.50;34.00
39779;DHT22;25454;49.878;8.618;2022-08-30T10:05:37;36.60;33.60
39779;DHT22;25454;49.878;8.618;2022-08-30T10:11:00;37.40;32.60
39779;DHT22;25454;49.878;8.618;2022-08-30T10:21:21;38.50;29.80
39779;DHT22;25454;49.878;8.618;2022-08-30T10:26:32;38.10;30.10
39779;DHT22;25454;49.878;8.618;2022-08-30T10:36:49;36.40;31.70
39779;DHT22;25454;49.878;8.618;2022-08-30T10:41:59;36.70;31.40
39779;DHT22;25454;49.878;8.618;2022-08-30T10:47:20;37.70;30.00
39779;DHT22;25454;49.878;8.618;2022-08-30T10:52:40;39.40;29.10
39779;DHT22;25454;49.878;8.618;2022-08-30T10:57:41;39.70;28.40
39779;DHT22;25454;49.878;8.618;2022-08-30T11:08:34;38.80;28.80
39779;DHT22;25454;49.878;8.618;2022-08-30T11:13:39;36.00;31.40
39779;DHT22;25454;49.878;8.618;2022-08-30T11:18:50;32.80;35.70
39779;DHT22;25454;49.878;8.618;2022-08-30T11:24:09;31.40;37.90
39779;DHT22;25454;49.878;8.618;2022-08-30T11:39:52;30.00;39.60
39779;DHT22;25454;49.878;8.618;2022-08-30T12:17:22;29.10;41.00
39779;DHT22;25454;49.878;8.618;2022-08-30T12:22:42;29.10;41.20
39779;DHT22;25454;49.878;8.618;2022-08-30T12:27:42;29.20;41.40
39779;DHT22;25454;49.878;8.618;2022-08-30T12:32:45;29.10;41.50
39779;DHT22;25454;49.878;8.618;2022-08-30T12:37:59;29.10;41.40
39779;DHT22;25454;49.878;8.618;2022-08-30T12:43:03;29.00;41.20
39779;DHT22;25454;49.878;8.618;2022-08-30T12:48:05;29.10;40.80
39779;DHT22;25454;49.878;8.618;2022-08-30T12:53:11;29.00;41.20
39779;DHT22;25454;49.878;8.618;2022-08-30T12:58:13;29.20;40.90
39779;DHT22;25454;49.878;8.618;2022-08-30T13:03:32;29.30;41.10
39779;DHT22;25454;49.878;8.618;2022-08-30T13:13:50;29.20;41.30
39779;DHT22;25454;49.878;8.618;2022-08-30T13:19:15;29.30;41.30
39779;DHT22;25454;49.878;8.618;2022-08-30T13:24:16;29.40;40.30
39779;DHT22;25454;49.878;8.618;2022-08-30T13:29:19;29.30;40.40
39779;DHT22;25454;49.878;8.618;2022-08-30T13:34:20;29.50;40.20
39779;DHT22;25454;49.878;8.618;2022-08-30T13:39:24;29.70;40.30
39779;DHT22;25454;49.878;8.618;2022-08-30T13:44:25;29.90;40.00
39779;DHT22;25454;49.878;8.618;2022-08-30T13:49:34;30.10;39.40
39779;DHT22;25454;49.878;8.618;2022-08-30T13:54:35;29.90;40.10
39779;DHT22;25454;49.878;8.618;2022-08-30T13:59:36;29.80;38.80
39779;DHT22;25454;49.878;8.618;2022-08-30T14:04:36;29.80;38.90
39779;DHT22;25454;49.878;8.618;2022-08-30T14:09:37;29.90;39.30
39779;DHT22;25454;49.878;8.618;2022-08-30T14:14:37;30.10;39.20
39779;DHT22;25454;49.878;8.618;2022-08-30T14:19:38;30.30;38.90
39779;DHT22;25454;49.878;8.618;2022-08-30T14:24:39;29.90;39.00
39779;DHT22;25454;49.878;8.618;2022-08-30T14:29:46;29.80;39.50
39779;DHT22;25454;49.878;8.618;2022-08-30T14:34:47;29.50;39.70
39779;DHT22;25454;49.878;8.618;2022-08-30T14:39:48;29.30;40.20
39779;DHT22;25454;49.878;8.618;2022-08-30T14:44:48;29.40;40.30
39779;DHT22;25454;49.878;8.618;2022-08-30T14:49:49;29.20;40.80
39779;DHT22;25454;49.878;8.618;2022-08-30T14:54:49;29.20;41.20
39779;DHT22;25454;49.878;8.618;2022-08-30T14:59:50;29.20;40.80
39779;DHT22;25454;49.878;8.618;2022-08-30T15:04:50;29.10;41.20
39779;DHT22;25454;49.878;8.618;2022-08-30T15:09:51;28.90;41.20
39779;DHT22;25454;49.878;8.618;2022-08-30T15:14:52;28.70;41.60
39779;DHT22;25454;49.878;8.618;2022-08-30T15:19:52;28.70;41.60
39779;DHT22;25454;49.878;8.618;2022-08-30T15:24:53;28.80;41.60
39779;DHT22;25454;49.878;8.618;2022-08-30T15:29:55;28.80;41.40
39779;DHT22;25454;49.878;8.618;2022-08-30T15:34:55;28.90;41.20
39779;DHT22;25454;49.878;8.618;2022-08-30T15:39:56;28.90;40.90
39779;DHT22;25454;49.878;8.618;2022-08-30T15:44:56;28.90;41.10
39779;DHT22;25454;49.878;8.618;2022-08-30T15:50:00;28.80;41.10
39779;DHT22;25454;49.878;8.618;2022-08-30T15:55:05;28.70;41.30
39779;DHT22;25454;49.878;8.618;2022-08-30T16:00:06;28.60;41.80
39779;DHT22;25454;49.878;8.618;2022-08-30T16:05:09;28.50;42.10
39779;DHT22;25454;49.878;8.618;2022-08-30T16:10:10;28.50;42.30
39779;DHT22;25454;49.878;8.618;2022-08-30T16:15:11;28.50;41.80
39779;DHT22;25454;49.878;8.618;2022-08-30T16:20:11;28.40;42.00
39779;DHT22;25454;49.878;8.618;2022-08-30T16:25:12;28.40;42.10
39779;DHT22;25454;49.878;8.618;2022-08-30T16:30:14;28.30;42.40
39779;DHT22;25454;49.878;8.618;2022-08-30T16:35:15;28.20;42.70
39779;DHT22;25454;49.878;8.618;2022-08-30T16:40:19;27.90;42.70
39779;DHT22;25454;49.878;8.618;2022-08-30T16:45:19;27.80;43.30
39779;DHT22;25454;49.878;8.618;2022-08-30T16:50:20;27.60;43.50
39779;DHT22;25454;49.878;8.618;2022-08-30T16:55:22;27.60;44.30
39779;DHT22;25454;49.878;8.618;2022-08-30T17:00:23;27.50;43.70
39779;DHT22;25454;49.878;8.618;2022-08-30T17:05:24;27.40;43.80
39779;DHT22;25454;49.878;8.618;2022-08-30T17:10:25;27.40;43.80
39779;DHT22;25454;49.878;8.618;2022-08-30T17:15:26;27.30;44.00
39779;DHT22;25454;49.878;8.618;2022-08-30T17:20:27;27.30;44.10
39779;DHT22;25454;49.878;8.618;2022-08-30T17:25:30;27.20;44.40
39779;DHT22;25454;49.878;8.618;2022-08-30T17:30:31;27.00;44.90
39779;DHT22;25454;49.878;8.618;2022-08-30T17:35:31;26.90;45.10
39779;DHT22;25454;49.878;8.618;2022-08-30T17:40:32;26.80;45.40
39779;DHT22;25454;49.878;8.618;2022-08-30T17:45:33;26.70;45.80
39779;DHT22;25454;49.878;8.618;2022-08-30T17:50:34;26.50;46.20
39779;DHT22;25454;49.878;8.618;2022-08-30T17:55:34;26.40;46.90
39779;DHT22;25454;49.878;8.618;2022-08-30T18:00:35;26.20;47.30
39779;DHT22;25454;49.878;8.618;2022-08-30T18:05:35;26.10;47.70
39779;DHT22;25454;49.878;8.618;2022-08-30T18:10:36;25.90;48.00
39779;DHT22;25454;49.878;8.618;2022-08-30T18:15:37;25.80;48.40
39779;DHT22;25454;49.878;8.618;2022-08-30T18:20:37;25.60;48.70
39779;DHT22;25454;49.878;8.618;2022-08-30T18:25:38;25.50;49.10
39779;DHT22;25454;49.878;8.618;2022-08-30T18:30:39;25.40;49.50
39779;DHT22;25454;49.878;8.618;2022-08-30T18:35:40;25.20;49.90
39779;DHT22;25454;49.878;8.618;2022-08-30T18:40:43;25.10;50.30
39779;DHT22;25454;49.878;8.618;2022-08-30T18:45:45;25.10;50.50
39779;DHT22;25454;49.878;8.618;2022-08-30T18:50:48;25.00;50.60
39779;DHT22;25454;49.878;8.618;2022-08-30T18:55:48;24.90;51.00
39779;DHT22;25454;49.878;8.618;2022-08-30T19:00:49;24.90;51.20
39779;DHT22;25454;49.878;8.618;2022-08-30T19:05:50;24.80;51.40
39779;DHT22;25454;49.878;8.618;2022-08-30T19:10:51;24.70;51.80
39779;DHT22;25454;49.878;8.618;2022-08-30T19:15:51;24.60;52.20
39779;DHT22;25454;49.878;8.618;2022-08-30T19:20:52;24.50;52.50
39779;DHT22;25454;49.878;8.618;2022-08-30T19:25:56;24.50;52.80
39779;DHT22;25454;49.878;8.618;2022-08-30T19:30:57;24.40;52.90
39779;DHT22;25454;49.878;8.618;2022-08-30T19:35:57;24.30;53.10
39779;DHT22;25454;49.878;8.618;2022-08-30T19:40:59;24.30;53.30
39779;DHT22;25454;49.878;8.618;2022-08-30T19:46:00;24.20;53.70
39779;DHT22;25454;49.878;8.618;2022-08-30T19:51:08;24.20;53.90
39779;DHT22;25454;49.878;8.618;2022-08-30T19:56:09;24.10;54.10
39779;DHT22;25454;49.878;8.618;2022-08-30T20:01:09;24.00;54.40
39779;DHT22;25454;49.878;8.618;2022-08-30T20:06:10;23.90;54.60
39779;DHT22;25454;49.878;8.618;2022-08-30T20:11:16;23.80;54.90
39779;DHT22;25454;49.878;8.618;2022-08-30T20:16:17;23.70;55.20
39779;DHT22;25454;49.878;8.618;2022-08-30T20:21:18;23.60;55.40
39779;DHT22;25454;49.878;8.618;2022-08-30T20:26:19;23.50;55.70
39779;DHT22;25454;49.878;8.618;2022-08-30T20:31:20;23.40;56.00
39779;DHT22;25454;49.878;8.618;2022-08-30T20:36:23;23.40;56.30
39779;DHT22;25454;49.878;8.618;2022-08-30T20:41:24;23.30;56.40
39779;DHT22;25454;49.878;8.618;2022-08-30T20:46:28;23.20;56.60
39779;DHT22;25454;49.878;8.618;2022-08-30T20:51:29;23.20;56.70
39779;DHT22;25454;49.878;8.618;2022-08-30T20:56:29;23.20;56.90
39779;DHT22;25454;49.878;8.618;2022-08-30T21:01:32;23.10;56.90
39779;DHT22;25454;49.878;8.618;2022-08-30T21:06:33;23.10;57.10
39779;DHT22;25454;49.878;8.618;2022-08-30T21:11:37;23.10;57.30
39779;DHT22;25454;49.878;8.618;2022-08-30T21:16:37;23.00;57.40
39779;DHT22;25454;49.878;8.618;2022-08-30T21:21:41;22.90;57.60
39779;DHT22;25454;49.878;8.618;2022-08-30T21:26:43;22.90;57.90
39779;DHT22;25454;49.878;8.618;2022-08-30T21:31:43;22.80;58.10
39779;DHT22;25454;49.878;8.618;2022-08-30T21:36:44;22.80;58.20
39779;DHT22;25454;49.878;8.618;2022-08-30T21:41:46;22.70;58.50
39779;DHT22;25454;49.878;8.618;2022-08-30T21:46:49;22.70;58.60
39779;DHT22;25454;49.878;8.618;2022-08-30T21:51:54;22.70;58.60
39779;DHT22;25454;49.878;8.618;2022-08-30T21:56:58;22.70;58.80
39779;DHT22;25454;49.878;8.618;2022-08-30T22:02:04;22.70;58.90
39779;DHT22;25454;49.878;8.618;2022-08-30T22:07:04;22.60;59.10
39779;DHT22;25454;49.878;8.618;2022-08-30T22:12:07;22.60;59.40
39779;DHT22;25454;49.878;8.618;2022-08-30T22:17:08;22.50;59.70
39779;DHT22;25454;49.878;8.618;2022-08-30T22:22:11;22.40;59.90
39779;DHT22;25454;49.878;8.618;2022-08-30T22:27:13;22.30;60.30
39779;DHT22;25454;49.878;8.618;2022-08-30T22:32:13;22.30;60.60
39779;DHT22;25454;49.878;8.618;2022-08-30T22:37:14;22.20;60.90
39779;DHT22;25454;49.878;8.618;2022-08-30T22:42:15;22.20;61.10
39779;DHT22;25454;49.878;8.618;2022-08-30T22:47:16;22.20;61.40
39779;DHT22;25454;49.878;8.618;2022-08-30T22:52:16;22.10;61.40
39779;DHT22;25454;49.878;8.618;2022-08-30T22:57:17;22.10;61.80
39779;DHT22;25454;49.878;8.618;2022-08-30T23:02:19;22.00;61.90
39779;DHT22;25454;49.878;8.618;2022-08-30T23:07:19;22.00;62.20
39779;DHT22;25454;49.878;8.618;2022-08-30T23:12:20;22.00;62.40
39779;DHT22;25454;49.878;8.618;2022-08-30T23:17:21;22.00;62.50
39779;DHT22;25454;49.878;8.618;2022-08-30T23:22:21;22.00;62.70
39779;DHT22;25454;49.878;8.618;2022-08-30T23:27:22;21.90;62.90
39779;DHT22;25454;49.878;8.618;2022-08-30T23:32:41;21.90;63.30
39779;DHT22;25454;49.878;8.618;2022-08-30T23:38:04;21.80;63.50
39779;DHT22;25454;49.878;8.618;2022-08-30T23:43:23;21.80;64.80
39779;DHT22;25454;49.878;8.618;2022-08-30T23:48:43;21.70;64.10
39779;DHT22;25454;49.878;8.618;2022-08-30T23:54:04;21.70;64.60
39779;DHT22;25454;49.878;8.618;2022-08-30T23:59:29;21.60;64.80
